Time;durP1;ratioP1;P1;durP2;ratioP2;P2;SDS_P1;SDS_P2;PMS_P1;PMS_P2;Temp;Humidity;BMP_temperature;BMP_pressure;BME280_temperature;BME280_humidity;BME280_pressure;Samples;Min_cycle;Max_cycle;Signal;HPM_P1;HPM_P2
2021/03/31 00:00:58;;;;;;;73.30;33.75;;;;;;;9.97;73.12;101189.22;5102659;28;20053;-71
2021/03/31 00:03:43;;;;;;;78.38;34.38;;;;;;;9.96;73.06;101187.50;5109075;28;20414;-72
2021/03/31 00:06:28;;;;;;;74.45;33.22;;;;;;;9.94;73.16;101191.03;5104903;28;20047;-70
2021/03/31 00:09:13;;;;;;;77.05;34.92;;;;;;;9.94;73.13;101181.44;5109584;28;20467;-72
2021/03/31 00:11:58;;;;;;;85.63;34.92;;;;;;;9.94;73.01;101184.03;5111260;28;20421;-70
2021/03/31 00:14:43;;;;;;;84.68;36.05;;;;;;;9.92;73.12;101177.97;5110568;28;20127;-71
2021/03/31 00:17:29;;;;;;;77.97;35.75;;;;;;;9.90;73.25;101174.53;5104802;28;20512;-71
2021/03/31 00:20:16;;;;;;;73.95;34.60;;;;;;;9.89;73.16;101175.44;5103032;28;20078;-72
2021/03/31 00:23:04;;;;;;;80.50;34.95;;;;;;;9.89;73.07;101175.44;5109631;28;20513;-72
2021/03/31 00:25:49;;;;;;;84.22;35.53;;;;;;;9.89;73.14;101179.81;5107981;28;20751;-72
2021/03/31 00:28:34;;;;;;;86.72;37.22;;;;;;;9.87;73.04;101174.59;5105607;28;20579;-72
2021/03/31 00:31:19;;;;;;;80.32;37.30;;;;;;;9.87;73.07;101169.38;5109876;28;20047;-72
2021/03/31 00:34:05;;;;;;;86.40;37.08;;;;;;;9.86;73.05;101166.78;5110152;28;20081;-70
2021/03/31 00:36:49;;;;;;;83.85;37.70;;;;;;;9.83;73.28;101167.72;5106459;28;20047;-70
2021/03/31 00:39:34;;;;;;;80.40;35.63;;;;;;;9.83;73.04;101161.59;5107995;28;20539;-72
2021/03/31 00:42:19;;;;;;;88.15;36.28;;;;;;;9.81;73.11;101158.16;5104058;28;20406;-72
2021/03/31 00:45:04;;;;;;;83.07;35.28;;;;;;;9.80;73.07;101157.31;5109244;28;20096;-71
2021/03/31 00:47:50;;;;;;;87.97;37.75;;;;;;;9.78;73.26;101159.06;5110007;28;20046;-70
2021/03/31 00:50:36;;;;;;;85.03;35.78;;;;;;;9.77;73.11;101159.94;5106756;28;20054;-72
2021/03/31 00:53:23;;;;;;;91.72;40.15;;;;;;;9.77;73.23;101157.34;5109504;28;20051;-70
2021/03/31 00:56:09;;;;;;;81.05;35.90;;;;;;;9.77;73.24;101157.34;5105048;28;20413;-70
2021/03/31 00:58:54;;;;;;;86.43;37.15;;;;;;;9.77;73.22;101159.94;5108525;28;20046;-70
2021/03/31 01:01:39;;;;;;;83.72;38.17;;;;;;;9.74;73.08;101153.03;5110168;28;20139;-71
2021/03/31 01:04:24;;;;;;;80.70;36.53;;;;;;;9.72;73.20;101151.34;5107703;28;20038;-76
2021/03/31 01:07:10;;;;;;;79.60;36.65;;;;;;;9.71;73.00;101157.47;5107397;28;20050;-75
2021/03/31 01:09:56;;;;;;;84.20;37.88;;;;;;;9.70;73.21;101155.75;5104082;28;20047;-75
2021/03/31 01:12:53;;;;;;;80.55;35.70;;;;;;;9.68;73.39;101152.28;5110791;28;20047;-75
2021/03/31 01:15:43;;;;;;;88.47;35.72;;;;;;;9.68;73.31;101149.69;5101364;28;20105;-76
2021/03/31 01:18:32;;;;;;;86.57;37.60;;;;;;;9.67;73.30;101150.56;5110097;28;20550;-76
2021/03/31 01:21:50;;;;;;;86.22;36.35;;;;;;;9.65;73.41;101144.50;5104119;28;20050;-76
2021/03/31 01:25:13;;;;;;;84.93;37.13;;;;;;;9.63;73.31;101144.53;5110398;28;20082;-77
2021/03/31 01:28:10;;;;;;;75.57;36.20;;;;;;;9.61;73.25;101150.72;5044812;28;20103;-76
2021/03/31 01:31:04;;;;;;;78.72;35.40;;;;;;;9.59;73.43;101147.25;5107401;28;20102;-76
2021/03/31 01:34:21;;;;;;;86.55;36.13;;;;;;;9.58;73.42;101142.88;5105940;28;20058;-76
2021/03/31 01:37:12;;;;;;;85.68;36.90;;;;;;;9.58;73.21;101142.88;5092245;28;20058;-77
2021/03/31 01:39:58;;;;;;;88.83;37.33;;;;;;;9.57;73.25;101138.53;5107714;28;20116;-77
2021/03/31 01:42:51;;;;;;;78.55;35.55;;;;;;;9.53;73.44;101145.59;5104137;28;20279;-77
2021/03/31 01:45:38;;;;;;;85.45;35.92;;;;;;;9.54;73.25;101139.47;5108285;28;20532;-77
2021/03/31 01:48:27;;;;;;;75.28;37.50;;;;;;;9.52;73.36;101137.78;5108798;28;20109;-75
2021/03/31 01:51:14;;;;;;;80.03;37.97;;;;;;;9.52;73.40;101140.41;5100424;28;20055;-78
2021/03/31 01:54:00;;;;;;;83.97;38.25;;;;;;;9.50;73.32;101136.97;5109058;28;20089;-76
2021/03/31 01:56:46;;;;;;;77.82;38.58;;;;;;;9.48;73.29;101127.38;5105656;28;20165;-76
2021/03/31 01:59:32;;;;;;;81.70;37.35;;;;;;;9.48;73.57;101134.38;5104004;28;20104;-77
2021/03/31 02:02:18;;;;;;;83.78;39.03;;;;;;;9.47;73.42;101128.28;5107525;28;20618;-77
2021/03/31 02:05:05;;;;;;;88.45;38.58;;;;;;;9.46;73.54;101137.03;5099928;28;20081;-77
2021/03/31 02:07:51;;;;;;;86.10;38.88;;;;;;;9.45;73.44;101137.91;5108627;28;20449;-77
2021/03/31 02:10:37;;;;;;;78.90;36.63;;;;;;;9.42;73.51;101127.50;5110999;28;20444;-76
2021/03/31 02:13:22;;;;;;;79.38;35.13;;;;;;;9.41;73.64;101135.41;5110473;28;20070;-76
2021/03/31 02:16:10;;;;;;;88.75;38.63;;;;;;;9.38;73.80;101125.84;5106632;28;20559;-76
2021/03/31 02:18:55;;;;;;;84.68;38.83;;;;;;;9.38;73.76;101122.38;5107548;28;20177;-76
2021/03/31 02:21:42;;;;;;;87.25;37.22;;;;;;;9.37;73.66;101123.22;5112568;28;20050;-76
2021/03/31 02:24:27;;;;;;;80.85;38.08;;;;;;;9.36;73.83;101130.22;5113061;28;20050;-75
2021/03/31 02:27:14;;;;;;;86.07;39.92;;;;;;;9.36;73.70;101130.22;5111195;28;20401;-76
2021/03/31 02:29:59;;;;;;;84.75;39.00;;;;;;;9.36;73.56;101135.47;5110528;28;20528;-76
2021/03/31 02:32:47;;;;;;;88.53;38.38;;;;;;;9.35;73.74;101127.63;5112524;28;20128;-77
2021/03/31 02:35:34;;;;;;;85.30;38.42;;;;;;;9.33;73.82;101125.06;5104190;28;20046;-76
2021/03/31 02:38:19;;;;;;;78.85;37.53;;;;;;;9.31;73.32;101129.47;5112126;28;20050;-76
2021/03/31 02:41:06;;;;;;;89.38;39.08;;;;;;;9.29;73.88;101128.63;5106190;28;20494;-75
2021/03/31 02:43:54;;;;;;;84.45;37.50;;;;;;;9.28;73.76;101132.13;5113421;28;20047;-76
2021/03/31 02:46:41;;;;;;;88.20;38.08;;;;;;;9.27;73.61;101125.19;5109464;28;20105;-76
2021/03/31 02:49:28;;;;;;;92.40;40.97;;;;;;;9.25;73.76;101120.88;5110446;28;20116;-76
2021/03/31 02:52:16;;;;;;;81.55;37.90;;;;;;;9.22;73.79;101121.78;5104958;28;20054;-77
2021/03/31 02:55:02;;;;;;;85.40;41.63;;;;;;;9.21;73.61;101121.81;5106065;28;20050;-77
2021/03/31 02:57:48;;;;;;;97.88;43.22;;;;;;;9.18;73.84;101109.66;5112514;28;20050;-76
2021/03/31 03:00:34;;;;;;;91.20;42.33;;;;;;;9.19;73.82;101113.16;5112089;28;20057;-74
2021/03/31 03:03:19;;;;;;;100.85;45.40;;;;;;;9.16;73.83;101107.09;5101298;28;20059;-76
2021/03/31 03:06:06;;;;;;;90.53;43.05;;;;;;;9.14;73.76;101107.97;5110192;28;20057;-73
2021/03/31 03:08:51;;;;;;;96.72;43.22;;;;;;;9.12;73.67;101109.75;5112809;28;20050;-75
2021/03/31 03:11:37;;;;;;;91.47;43.55;;;;;;;9.11;73.81;101108.03;5106760;28;20047;-76
2021/03/31 03:14:23;;;;;;;111.85;51.80;;;;;;;9.10;73.77;101108.94;5104330;28;20047;-76
2021/03/31 03:17:09;;;;;;;98.47;44.97;;;;;;;9.09;73.65;101115.06;5110719;28;20055;-75
2021/03/31 03:19:54;;;;;;;101.63;48.17;;;;;;;9.09;73.61;101112.44;5107618;28;20104;-77
2021/03/31 03:22:41;;;;;;;118.35;49.72;;;;;;;9.06;73.52;101107.28;5112019;28;20055;-76
2021/03/31 03:25:27;;;;;;;105.40;49.67;;;;;;;9.04;73.54;101101.22;5106129;28;20088;-76
2021/03/31 03:28:14;;;;;;;105.93;52.40;;;;;;;9.01;73.64;101104.75;5109042;28;20054;-75
2021/03/31 03:31:00;;;;;;;106.40;48.63;;;;;;;8.99;73.50;101097.81;5106098;28;20513;-76
2021/03/31 03:33:46;;;;;;;101.38;47.40;;;;;;;8.99;73.61;101097.81;5109966;28;20047;-76
2021/03/31 03:36:31;;;;;;;96.35;44.97;;;;;;;8.97;73.75;101097.00;5110056;28;20052;-76
2021/03/31 03:39:16;;;;;;;99.68;43.95;;;;;;;8.95;73.80;101097.00;5109918;28;20071;-76
2021/03/31 03:42:01;;;;;;;109.95;52.53;;;;;;;8.93;73.82;101092.69;5106725;28;20138;-76
2021/03/31 03:44:46;;;;;;;94.28;42.78;;;;;;;8.92;73.91;101090.97;5105439;28;20494;-77
2021/03/31 03:47:31;;;;;;;89.85;42.47;;;;;;;8.89;73.78;101094.50;5110630;28;20081;-77
2021/03/31 03:50:17;;;;;;;94.20;45.25;;;;;;;8.88;73.75;101095.38;5106052;28;20494;-79
2021/03/31 03:53:02;;;;;;;103.00;46.33;;;;;;;8.86;73.72;101092.81;5112703;28;20096;-75
2021/03/31 03:55:47;;;;;;;106.70;47.13;;;;;;;8.85;73.83;101090.22;5105432;28;20444;-76
2021/03/31 03:58:32;;;;;;;95.20;44.13;;;;;;;8.84;73.86;101091.97;5108700;28;20680;-76
2021/03/31 04:01:17;;;;;;;96.70;46.00;;;;;;;8.84;73.69;101089.34;5104572;28;20559;-76
2021/03/31 04:04:02;;;;;;;100.30;46.15;;;;;;;8.84;73.76;101094.59;5111403;28;20043;-74
2021/03/31 04:06:48;;;;;;;104.90;46.75;;;;;;;8.82;73.82;101091.13;5101223;28;20168;-77
2021/03/31 04:09:34;;;;;;;99.75;46.22;;;;;;;8.83;73.69;101098.09;5099386;28;20113;-76
2021/03/31 04:12:19;;;;;;;100.50;44.38;;;;;;;8.83;73.63;101092.84;5099227;28;20078;-76
2021/03/31 04:15:07;;;;;;;96.65;44.97;;;;;;;8.84;73.52;101094.59;5102462;28;20074;-77
2021/03/31 04:17:53;;;;;;;84.53;41.25;;;;;;;8.86;73.39;101097.16;5102683;28;20111;-76
2021/03/31 04:20:39;;;;;;;94.85;41.28;;;;;;;8.88;73.47;101091.91;5101595;28;20059;-76
2021/03/31 04:23:25;;;;;;;95.85;44.42;;;;;;;8.89;73.41;101091.03;5097195;28;20487;-77
2021/03/31 04:26:10;;;;;;;98.38;44.45;;;;;;;8.93;73.38;101088.31;5103030;28;20043;-77
2021/03/31 04:28:55;;;;;;;97.20;43.65;;;;;;;8.98;73.27;101102.19;5069117;27;20112;-76
2021/03/31 04:31:42;;;;;;;94.60;44.05;;;;;;;9.02;73.08;101097.75;5101260;28;20089;-73
2021/03/31 04:34:28;;;;;;;107.10;51.42;;;;;;;9.07;73.08;101085.44;5104245;28;20084;-74
2021/03/31 04:37:14;;;;;;;107.85;50.30;;;;;;;9.15;73.00;101088.78;5104105;28;20058;-74
2021/03/31 04:39:59;;;;;;;106.68;50.38;;;;;;;9.23;72.77;101089.50;5107797;28;20070;-73
2021/03/31 04:42:45;;;;;;;115.55;52.38;;;;;;;9.31;72.59;101084.97;5109535;28;20047;-76
2021/03/31 04:45:30;;;;;;;109.68;52.95;;;;;;;9.40;72.33;101083.94;5103753;28;20448;-75
2021/03/31 04:48:15;;;;;;;117.38;55.90;;;;;;;9.48;72.42;101080.25;5104931;28;20413;-75
2021/03/31 04:51:00;;;;;;;118.07;55.45;;;;;;;9.58;72.36;101088.81;5100895;28;20541;-69
2021/03/31 04:53:44;;;;;;;94.68;49.65;;;;;;;9.69;72.12;101071.09;5107893;28;20456;-68
2021/03/31 04:56:30;;;;;;;98.20;45.25;;;;;;;9.78;71.98;101072.63;5105706;28;20075;-69
2021/03/31 04:59:15;;;;;;;87.07;43.28;;;;;;;9.89;71.70;101082.91;5106093;28;20113;-68
2021/03/31 05:02:00;;;;;;;96.18;45.30;;;;;;;10.00;71.65;101081.78;5106986;28;20151;-69
2021/03/31 05:04:45;;;;;;;85.88;44.83;;;;;;;10.12;71.48;101080.63;5110515;28;20080;-68
2021/03/31 05:07:29;;;;;;;87.43;46.25;;;;;;;10.27;71.13;101084.69;5111394;28;20048;-69
2021/03/31 05:10:14;;;;;;;77.13;41.10;;;;;;;10.46;70.93;101096.44;5112548;28;20500;-70
2021/03/31 05:12:59;;;;;;;71.15;40.83;;;;;;;10.69;70.76;101091.47;5109919;28;20093;-69
2021/03/31 05:15:44;;;;;;;75.65;40.45;;;;;;;10.93;70.21;101091.75;5091846;28;20101;-70
2021/03/31 05:18:28;;;;;;;73.50;40.58;;;;;;;11.15;70.08;101082.41;5111640;28;20055;-73
2021/03/31 05:21:13;;;;;;;71.07;40.35;;;;;;;11.39;69.74;101098.34;5109899;28;20139;-74
2021/03/31 05:23:57;;;;;;;64.70;37.33;;;;;;;11.78;69.02;101097.25;5111545;28;20077;-71
2021/03/31 05:26:43;;;;;;;64.32;36.03;;;;;;;12.10;68.52;101105.94;5110360;28;20042;-69
2021/03/31 05:29:29;;;;;;;61.40;35.92;;;;;;;12.26;68.34;101101.88;5088434;28;20054;-75
2021/03/31 05:32:13;;;;;;;62.50;36.70;;;;;;;12.57;68.06;101100.91;5092969;28;20276;-75
2021/03/31 05:34:59;;;;;;;63.95;36.08;;;;;;;12.92;67.53;101108.50;5111691;28;20493;-74
2021/03/31 05:37:44;;;;;;;58.53;32.78;;;;;;;13.31;66.88;101100.13;5109764;28;20131;-75
2021/03/31 05:40:32;;;;;;;62.65;34.08;;;;;;;13.80;66.19;101107.06;5108517;28;20414;-74
2021/03/31 05:43:17;;;;;;;53.40;34.67;;;;;;;14.22;65.31;101107.19;5113559;28;20086;-73
2021/03/31 05:46:03;;;;;;;58.85;35.78;;;;;;;14.80;64.25;101103.97;5113759;28;20121;-74
2021/03/31 05:48:48;;;;;;;48.30;31.77;;;;;;;15.25;63.37;101106.41;5113620;28;20055;-74
2021/03/31 05:51:34;;;;;;;48.45;31.33;;;;;;;15.40;62.93;101118.94;5114938;28;20159;-76
2021/03/31 05:54:19;;;;;;;47.80;30.13;;;;;;;15.44;62.82;101112.59;5114651;28;20054;-74
2021/03/31 05:57:05;;;;;;;61.30;37.95;;;;;;;15.60;61.96;101110.13;5115340;28;20055;-74
2021/03/31 05:59:52;;;;;;;65.88;39.05;;;;;;;15.69;61.77;101112.38;5115990;28;20055;-75
2021/03/31 06:02:39;;;;;;;56.80;34.67;;;;;;;15.85;61.16;101117.81;5115453;28;20169;-74
2021/03/31 06:05:24;;;;;;;46.42;30.80;;;;;;;15.97;60.83;101119.03;5115848;28;20054;-75
2021/03/31 06:08:09;;;;;;;45.08;30.58;;;;;;;15.98;60.56;101107.50;5115373;28;20093;-75
2021/03/31 06:10:58;;;;;;;44.85;28.10;;;;;;;16.01;60.05;101118.81;5115780;28;20101;-75
2021/03/31 06:13:51;;;;;;;45.25;28.50;;;;;;;16.19;59.99;101122.38;5115110;28;20101;-75
2021/03/31 06:16:37;;;;;;;46.15;29.77;;;;;;;16.40;59.16;101110.75;5114906;28;20081;-74
2021/03/31 06:19:22;;;;;;;46.83;30.77;;;;;;;16.55;58.79;101113.59;5115316;28;20082;-74
2021/03/31 06:22:18;;;;;;;50.78;32.15;;;;;;;16.75;58.16;101119.63;5114970;28;20120;-75
2021/03/31 06:25:07;;;;;;;47.13;30.23;;;;;;;16.90;57.90;101104.78;5115274;28;20047;-74
2021/03/31 06:27:53;;;;;;;42.25;28.85;;;;;;;17.25;57.02;101110.03;5114917;28;20059;-75
2021/03/31 06:30:38;;;;;;;45.50;29.70;;;;;;;17.82;55.50;101107.88;5114829;28;20105;-74
2021/03/31 06:33:23;;;;;;;46.65;29.83;;;;;;;18.31;54.35;101106.00;5114580;28;20050;-76
2021/03/31 06:36:11;;;;;;;50.42;29.05;;;;;;;18.76;53.96;101109.66;5114797;28;20464;-74
2021/03/31 06:38:55;;;;;;;52.45;31.95;;;;;;;19.11;53.21;101115.50;5114529;28;20062;-74
2021/03/31 06:41:50;;;;;;;44.92;30.27;;;;;;;19.55;52.27;101110.16;5114994;28;20145;-74
2021/03/31 06:44:52;;;;;;;41.70;30.55;;;;;;;20.31;50.18;101105.28;5115837;28;20151;-74
2021/03/31 06:47:41;;;;;;;42.72;29.35;;;;;;;21.34;48.54;101103.75;5114378;28;20508;-74
2021/03/31 06:50:26;;;;;;;40.42;26.88;;;;;;;22.35;46.31;101105.38;5114927;28;20054;-74
2021/03/31 06:53:12;;;;;;;37.90;25.67;;;;;;;23.52;43.96;101099.00;5113521;28;20051;-73
2021/03/31 06:56:01;;;;;;;39.92;26.25;;;;;;;24.23;42.64;101092.41;5114301;28;20068;-74
2021/03/31 06:58:56;;;;;;;36.95;25.85;;;;;;;25.65;40.12;101090.19;5114128;28;20050;-74
2021/03/31 07:01:42;;;;;;;37.92;26.52;;;;;;;26.92;37.77;101082.19;5114481;28;20130;-75
2021/03/31 07:04:28;;;;;;;37.25;24.45;;;;;;;27.80;36.44;101089.03;5114572;28;20138;-75
2021/03/31 07:07:13;;;;;;;29.67;21.70;;;;;;;28.21;35.08;101093.88;5114043;28;20046;-74
2021/03/31 07:10:10;;;;;;;29.95;21.88;;;;;;;28.50;35.27;101096.38;5114593;28;20113;-75
2021/03/31 07:12:55;;;;;;;31.27;22.13;;;;;;;28.98;33.47;101087.03;5113907;28;20096;-74
2021/03/31 07:15:40;;;;;;;29.25;21.48;;;;;;;29.44;32.93;101082.25;5114824;28;20485;-73
2021/03/31 07:18:26;;;;;;;28.42;21.77;;;;;;;29.61;32.91;101083.22;5113829;28;20088;-74
2021/03/31 07:21:12;;;;;;;30.10;21.95;;;;;;;29.70;32.73;101087.63;5114164;28;20497;-74
2021/03/31 07:23:58;;;;;;;28.70;22.75;;;;;;;29.72;31.88;101082.91;5112732;28;20074;-74
2021/03/31 07:26:45;;;;;;;42.63;25.67;;;;;;;29.77;32.05;101077.84;5110383;28;20532;-74
2021/03/31 07:29:31;;;;;;;30.17;22.35;;;;;;;29.79;31.40;101091.22;5110597;28;20134;-74
2021/03/31 07:32:17;;;;;;;38.15;22.65;;;;;;;29.96;31.54;101082.16;5104749;28;20043;-74
2021/03/31 07:35:03;;;;;;;36.45;24.33;;;;;;;30.58;30.14;101086.16;5093885;28;20043;-76
2021/03/31 07:37:49;;;;;;;37.53;26.30;;;;;;;30.47;29.98;101082.97;5092822;28;20062;-76
2021/03/31 07:40:38;;;;;;;35.53;25.63;;;;;;;30.36;29.75;101089.53;5093248;28;20055;-74
2021/03/31 07:43:27;;;;;;;43.42;28.13;;;;;;;30.24;30.54;101085.47;5092685;28;20118;-74
2021/03/31 07:46:15;;;;;;;37.30;25.85;;;;;;;30.18;30.11;101081.56;5093195;28;20054;-73
2021/03/31 07:49:01;;;;;;;33.13;23.98;;;;;;;30.22;29.99;101082.09;5092772;28;20047;-75
2021/03/31 07:51:57;;;;;;;32.53;25.60;;;;;;;31.08;29.18;101078.91;5092723;28;20050;-75
2021/03/31 07:54:42;;;;;;;35.08;22.90;;;;;;;32.15;26.79;101081.09;5094456;28;20043;-77
2021/03/31 07:57:31;;;;;;;28.45;23.08;;;;;;;32.55;26.64;101076.44;5102962;28;20066;-75
2021/03/31 08:01:02;;;;;;;36.70;23.63;;;;;;;32.84;26.71;101081.13;5113501;28;20096;-74
2021/03/31 08:03:48;;;;;;;34.08;22.35;;;;;;;33.83;25.19;101068.97;5106337;28;20101;-75
2021/03/31 08:06:33;;;;;;;28.00;20.70;;;;;;;35.13;23.61;101075.09;5107587;28;20134;-74
2021/03/31 08:09:23;;;;;;;38.40;21.42;;;;;;;36.13;22.44;101062.81;5111682;28;20045;-75
2021/03/31 08:12:09;;;;;;;28.67;19.55;;;;;;;36.88;21.41;101062.53;5107547;28;20062;-74
2021/03/31 08:14:54;;;;;;;27.55;18.67;;;;;;;36.84;21.15;101061.25;5108652;28;20054;-73
2021/03/31 08:17:40;;;;;;;20.25;15.98;;;;;;;36.99;20.71;101052.84;5110462;28;20058;-75
2021/03/31 08:20:25;;;;;;;26.63;17.80;;;;;;;36.72;20.81;101054.72;5101681;28;20091;-76
2021/03/31 08:23:11;;;;;;;23.67;16.88;;;;;;;36.71;20.85;101063.97;5106727;28;20081;-75
2021/03/31 08:25:55;;;;;;;21.70;15.77;;;;;;;36.72;20.79;101054.72;5112106;28;20436;-75
2021/03/31 08:28:42;;;;;;;19.17;16.38;;;;;;;35.26;21.97;101047.94;5110459;28;20046;-75
2021/03/31 08:31:29;;;;;;;22.83;16.73;;;;;;;33.97;23.48;101040.09;5108073;28;20078;-74
2021/03/31 08:34:16;;;;;;;21.48;16.75;;;;;;;34.50;23.00;101049.66;5110873;28;20401;-75
2021/03/31 08:37:03;;;;;;;25.88;16.27;;;;;;;36.70;20.61;101048.63;5111264;28;20054;-75
2021/03/31 08:39:48;;;;;;;20.55;14.93;;;;;;;38.01;19.10;101048.50;5110964;28;20576;-74
2021/03/31 08:42:33;;;;;;;24.50;15.13;;;;;;;39.37;18.08;101047.84;5106921;28;20054;-75
2021/03/31 08:45:27;;;;;;;22.13;14.73;;;;;;;40.17;16.88;101045.72;5109641;28;20562;-76
2021/03/31 08:48:12;;;;;;;21.02;15.15;;;;;;;40.45;16.53;101043.22;5108395;28;20071;-75
2021/03/31 08:51:06;;;;;;;20.58;16.15;;;;;;;40.71;16.70;101044.66;5109261;28;20055;-75
2021/03/31 08:53:51;;;;;;;21.33;15.43;;;;;;;41.39;16.18;101038.53;5108519;28;20050;-74
2021/03/31 08:56:38;;;;;;;22.85;15.50;;;;;;;41.58;16.19;101041.13;5111580;28;20537;-74
2021/03/31 08:59:30;;;;;;;21.50;14.05;;;;;;;42.07;15.62;101038.84;5109564;28;20102;-75
2021/03/31 09:02:19;;;;;;;16.52;11.05;;;;;;;41.21;15.66;101038.66;5106608;28;20418;-74
2021/03/31 09:05:05;;;;;;;17.33;13.30;;;;;;;41.42;15.78;101038.03;5109665;28;20514;-75
2021/03/31 09:07:59;;;;;;;19.23;12.10;;;;;;;40.03;16.78;101028.63;5110002;28;20410;-76
2021/03/31 09:10:51;;;;;;;19.35;11.57;;;;;;;37.98;18.43;101018.84;5109496;28;20093;-77
2021/03/31 09:13:38;;;;;;;15.30;12.77;;;;;;;37.14;19.42;101026.09;5102711;28;20046;-73
2021/03/31 09:16:24;;;;;;;18.17;13.90;;;;;;;37.40;18.78;101027.94;5106335;28;20065;-74
2021/03/31 09:19:09;;;;;;;17.85;14.02;;;;;;;37.67;18.43;101022.34;5112836;28;20042;-73
2021/03/31 09:21:54;;;;;;;18.17;13.40;;;;;;;39.33;17.00;101017.25;5102783;28;20551;-73
2021/03/31 09:24:41;;;;;;;18.42;14.23;;;;;;;40.56;15.92;101019.56;5113741;28;20047;-73
2021/03/31 09:27:28;;;;;;;15.63;12.18;;;;;;;40.65;15.94;101017.31;5114575;28;20388;-73
2021/03/31 09:30:15;;;;;;;18.23;12.43;;;;;;;40.80;15.89;101009.38;5107102;28;20094;-75
2021/03/31 09:33:05;;;;;;;16.90;10.27;;;;;;;41.05;15.79;101012.75;5115301;28;20086;-75
2021/03/31 09:35:50;;;;;;;19.10;11.50;;;;;;;41.61;15.09;101007.59;5112495;28;20534;-74
2021/03/31 09:38:35;;;;;;;17.75;10.30;;;;;;;41.88;14.86;101002.38;5114629;28;20121;-74
2021/03/31 09:41:22;;;;;;;14.75;9.77;;;;;;;39.95;16.38;100998.75;5111590;28;20172;-76
2021/03/31 09:44:07;;;;;;;14.63;9.38;;;;;;;38.73;17.57;101006.06;5113163;28;20067;-74
2021/03/31 09:46:52;;;;;;;22.30;10.68;;;;;;;37.68;18.36;101008.44;5111396;28;20051;-74
2021/03/31 09:49:37;;;;;;;15.15;10.00;;;;;;;37.02;19.00;100992.28;5114856;28;20050;-73
2021/03/31 09:52:25;;;;;;;15.38;10.00;;;;;;;35.56;20.68;100996.72;5093443;28;20273;-69
2021/03/31 09:55:12;;;;;;;15.70;10.07;;;;;;;34.55;21.97;100987.28;5098010;28;20100;-70
2021/03/31 09:57:59;;;;;;;15.88;10.75;;;;;;;33.52;22.95;100995.81;5113257;28;20104;-70
2021/03/31 10:00:43;;;;;;;16.55;10.75;;;;;;;32.27;24.34;100989.28;5113715;28;20055;-70
2021/03/31 10:03:30;;;;;;;17.58;10.63;;;;;;;31.60;25.23;100992.56;5113622;28;20058;-70
2021/03/31 10:06:19;;;;;;;15.05;9.93;;;;;;;30.92;25.88;100985.88;5113703;28;20051;-69
2021/03/31 10:09:14;;;;;;;13.10;9.43;;;;;;;29.93;26.99;100986.00;5115320;28;20062;-70
2021/03/31 10:11:59;;;;;;;14.93;9.55;;;;;;;29.69;27.65;100983.25;5115130;28;20298;-70
2021/03/31 10:14:51;;;;;;;17.50;10.80;;;;;;;29.42;28.39;100971.66;5115373;28;20074;-69
2021/03/31 10:17:36;;;;;;;17.98;10.52;;;;;;;29.35;28.51;100976.00;5115159;28;20062;-68
2021/03/31 10:20:21;;;;;;;14.77;9.95;;;;;;;29.20;28.50;100977.66;5115262;28;20065;-69
2021/03/31 10:23:06;;;;;;;15.00;9.18;;;;;;;28.74;28.95;100985.13;5115321;28;20050;-70
2021/03/31 10:25:51;;;;;;;14.63;9.15;;;;;;;28.87;28.86;100981.19;5115229;28;20046;-70
2021/03/31 10:28:37;;;;;;;17.52;9.27;;;;;;;28.87;28.83;100975.78;5110765;28;20042;-68
2021/03/31 10:31:25;;;;;;;12.63;9.32;;;;;;;28.21;29.46;100969.84;5109846;28;20047;-69
2021/03/31 10:34:12;;;;;;;14.35;8.85;;;;;;;27.68;30.38;100980.59;5113282;28;20074;-70
2021/03/31 10:37:03;;;;;;;14.48;8.90;;;;;;;27.17;30.49;100971.22;5106774;28;20047;-69
2021/03/31 10:49:39;;;;;;;11.13;6.30;;;;;;;25.60;32.92;100955.47;5109936;28;20088;-71
2021/03/31 10:52:25;;;;;;;10.52;7.45;;;;;;;25.06;33.49;100962.09;5106358;28;20046;-70
2021/03/31 10:55:10;;;;;;;13.90;7.95;;;;;;;24.73;34.52;100958.66;5108148;28;20110;-70
2021/03/31 10:57:55;;;;;;;12.32;7.75;;;;;;;24.46;34.48;100956.53;5106805;28;20156;-70
2021/03/31 11:00:40;;;;;;;10.65;7.32;;;;;;;24.28;34.74;100947.34;5108645;28;20069;-70
2021/03/31 11:03:26;;;;;;;15.45;8.88;;;;;;;24.13;35.16;100949.47;5107372;28;20116;-71
2021/03/31 11:06:11;;;;;;;12.10;8.95;;;;;;;24.05;35.43;100949.28;5110921;28;20125;-71
2021/03/31 11:08:56;;;;;;;15.93;9.27;;;;;;;23.98;35.33;100940.91;5111471;28;20514;-70
2021/03/31 11:11:42;;;;;;;15.15;10.43;;;;;;;23.98;35.23;100932.88;5105605;28;20078;-69
2021/03/31 11:14:28;;;;;;;14.63;10.43;;;;;;;23.76;36.03;100932.09;5106816;28;20051;-70
2021/03/31 11:17:18;;;;;;;17.75;11.13;;;;;;;23.67;36.16;100931.03;5110742;28;20109;-69
2021/03/31 11:20:14;;;;;;;13.80;9.65;;;;;;;23.76;36.37;100926.75;5106279;28;20063;-71
2021/03/31 11:26:03;;;;;;;14.30;9.65;;;;;;;23.58;36.38;100921.09;5109736;28;20051;-74
2021/03/31 11:28:48;;;;;;;14.93;10.13;;;;;;;23.68;36.56;100924.69;5111511;28;20161;-75
2021/03/31 11:31:32;;;;;;;15.50;9.55;;;;;;;23.72;37.14;100918.94;5107844;28;20054;-75
2021/03/31 11:34:18;;;;;;;14.73;10.23;;;;;;;23.78;36.87;100916.78;5107162;28;20705;-73
2021/03/31 11:37:04;;;;;;;17.52;10.75;;;;;;;23.76;36.67;100913.38;5105118;28;20075;-73
2021/03/31 11:39:48;;;;;;;14.82;9.68;;;;;;;23.75;37.22;100912.53;5107075;28;20097;-72
2021/03/31 11:42:34;;;;;;;16.10;11.25;;;;;;;23.83;37.44;100910.03;5110502;28;20050;-73
2021/03/31 11:45:18;;;;;;;12.77;8.90;;;;;;;23.71;37.07;100903.88;5111815;28;20047;-72
2021/03/31 11:48:04;;;;;;;15.30;9.63;;;;;;;23.47;37.47;100897.84;5108519;28;20088;-74
2021/03/31 11:50:49;;;;;;;19.90;10.13;;;;;;;23.23;38.48;100899.84;5106042;28;20390;-74
2021/03/31 11:53:34;;;;;;;14.27;9.10;;;;;;;23.21;37.90;100896.44;5110785;28;20058;-74
2021/03/31 11:56:20;;;;;;;18.42;10.38;;;;;;;23.16;37.95;100896.81;5108570;28;20059;-74
2021/03/31 11:59:05;;;;;;;17.10;9.75;;;;;;;23.13;38.38;100885.53;5104315;28;20083;-76
2021/03/31 12:01:50;;;;;;;14.18;8.73;;;;;;;23.12;37.77;100884.69;5109112;28;20100;-73
2021/03/31 12:04:35;;;;;;;16.40;10.55;;;;;;;23.03;37.85;100880.91;5111310;28;20525;-73
2021/03/31 12:07:20;;;;;;;15.20;9.00;;;;;;;23.05;37.38;100870.09;5105992;28;20097;-74
2021/03/31 12:10:08;;;;;;;14.35;9.77;;;;;;;23.06;37.14;100875.31;5110672;28;20414;-74
2021/03/31 12:12:53;;;;;;;14.43;10.60;;;;;;;23.08;38.07;100859.13;5108986;28;20509;-73
2021/03/31 12:15:38;;;;;;;13.32;9.68;;;;;;;23.13;37.97;100859.63;5106401;28;20118;-74
2021/03/31 12:18:22;;;;;;;17.10;10.85;;;;;;;23.21;37.79;100865.19;5109768;28;20132;-72
2021/03/31 12:21:07;;;;;;;16.02;9.95;;;;;;;23.19;37.79;100850.25;5108665;28;20050;-74
2021/03/31 12:23:52;;;;;;;19.67;12.10;;;;;;;23.14;37.70;100855.97;5105566;28;20063;-73
2021/03/31 12:26:37;;;;;;;18.48;12.07;;;;;;;23.17;37.72;100849.53;5107363;28;20138;-75
2021/03/31 12:29:22;;;;;;;14.48;9.75;;;;;;;23.15;37.45;100846.97;5104232;28;20089;-73
2021/03/31 12:32:08;;;;;;;19.13;10.60;;;;;;;23.15;37.64;100836.28;5107946;28;20050;-73
2021/03/31 12:34:53;;;;;;;16.83;11.93;;;;;;;23.22;37.65;100837.47;5108915;28;20126;-73
2021/03/31 12:37:38;;;;;;;16.83;10.18;;;;;;;23.31;37.12;100828.69;5102979;28;20059;-73
2021/03/31 12:40:23;;;;;;;12.68;9.88;;;;;;;23.31;36.84;100827.81;5106602;28;20504;-73
2021/03/31 12:43:09;;;;;;;12.45;8.98;;;;;;;23.28;36.34;100820.06;5109468;28;20046;-73
2021/03/31 12:45:54;;;;;;;13.73;9.70;;;;;;;23.27;36.28;100826.38;5110027;28;20133;-74
2021/03/31 12:48:39;;;;;;;11.85;8.13;;;;;;;23.43;36.11;100819.66;5106706;28;20525;-73
2021/03/31 12:51:32;;;;;;;13.10;9.25;;;;;;;23.64;35.96;100817.03;5104131;28;20537;-73
2021/03/31 12:54:21;;;;;;;16.35;8.98;;;;;;;23.77;35.97;100818.69;5106937;28;20051;-73